sensor_id;sensor_type;location;lat;lon;timestamp;P1;durP1;ratioP1;P2;durP2;ratioP2
3643;SDS011;1838;50.742;7.158;2023-02-15T00:01:27;72.27;;;29.83;;
3643;SDS011;1838;50.742;7.158;2023-02-15T00:03:52;81.63;;;30.40;;
3643;SDS011;1838;50.742;7.158;2023-02-15T00:06:18;85.87;;;32.87;;
3643;SDS011;1838;50.742;7.158;2023-02-15T00:08:44;86.47;;;32.87;;
3643;SDS011;1838;50.742;7.158;2023-02-15T00:11:11;78.13;;;29.60;;
3643;SDS011;1838;50.742;7.158;2023-02-15T00:13:38;70.50;;;28.43;;
3643;SDS011;1838;50.742;7.158;2023-02-15T00:16:11;84.07;;;28.57;;
3643;SDS011;1838;50.742;7.158;2023-02-15T00:18:38;74.33;;;28.27;;
3643;SDS011;1838;50.742;7.158;2023-02-15T00:21:05;76.37;;;30.20;;
3643;SDS011;1838;50.742;7.158;2023-02-15T00:23:32;84.40;;;29.83;;
3643;SDS011;1838;50.742;7.158;2023-02-15T00:26:07;81.50;;;27.20;;
3643;SDS011;1838;50.742;7.158;2023-02-15T00:28:36;69.57;;;27.60;;
3643;SDS011;1838;50.742;7.158;2023-02-15T00:31:05;68.70;;;27.47;;
3643;SDS011;1838;50.742;7.158;2023-02-15T00:33:32;59.83;;;26.60;;
3643;SDS011;1838;50.742;7.158;2023-02-15T00:35:58;68.73;;;29.40;;
3643;SDS011;1838;50.742;7.158;2023-02-15T00:38:25;67.05;;;27.70;;
3643;SDS011;1838;50.742;7.158;2023-02-15T00:40:52;68.97;;;27.87;;
3643;SDS011;1838;50.742;7.158;2023-02-15T00:43:21;74.82;;;28.83;;
3643;SDS011;1838;50.742;7.158;2023-02-15T00:45:47;73.90;;;29.13;;
3643;SDS011;1838;50.742;7.158;2023-02-15T00:48:13;64.50;;;26.77;;
3643;SDS011;1838;50.742;7.158;2023-02-15T00:50:38;78.67;;;29.60;;
3643;SDS011;1838;50.742;7.158;2023-02-15T00:53:04;71.27;;;29.07;;
3643;SDS011;1838;50.742;7.158;2023-02-15T00:55:30;79.53;;;28.43;;
3643;SDS011;1838;50.742;7.158;2023-02-15T00:57:55;74.77;;;27.03;;
3643;SDS011;1838;50.742;7.158;2023-02-15T01:00:21;65.57;;;27.87;;
3643;SDS011;1838;50.742;7.158;2023-02-15T01:02:46;64.47;;;26.67;;
3643;SDS011;1838;50.742;7.158;2023-02-15T01:05:12;63.77;;;26.93;;
3643;SDS011;1838;50.742;7.158;2023-02-15T01:07:37;75.87;;;29.77;;
3643;SDS011;1838;50.742;7.158;2023-02-15T01:10:04;75.70;;;30.10;;
3643;SDS011;1838;50.742;7.158;2023-02-15T01:12:31;66.82;;;27.55;;
3643;SDS011;1838;50.742;7.158;2023-02-15T01:14:57;73.13;;;29.37;;
3643;SDS011;1838;50.742;7.158;2023-02-15T01:17:22;79.87;;;29.47;;
3643;SDS011;1838;50.742;7.158;2023-02-15T01:19:48;74.47;;;29.27;;
3643;SDS011;1838;50.742;7.158;2023-02-15T01:22:13;75.03;;;28.67;;
3643;SDS011;1838;50.742;7.158;2023-02-15T01:24:39;64.50;;;27.70;;
3643;SDS011;1838;50.742;7.158;2023-02-15T01:27:04;67.53;;;28.03;;
3643;SDS011;1838;50.742;7.158;2023-02-15T01:29:30;71.40;;;28.37;;
3643;SDS011;1838;50.742;7.158;2023-02-15T01:31:55;77.67;;;29.30;;
3643;SDS011;1838;50.742;7.158;2023-02-15T01:34:21;75.10;;;27.70;;
3643;SDS011;1838;50.742;7.158;2023-02-15T01:36:46;66.63;;;26.67;;
3643;SDS011;1838;50.742;7.158;2023-02-15T01:39:13;70.07;;;27.37;;
3643;SDS011;1838;50.742;7.158;2023-02-15T01:41:39;62.60;;;26.67;;
3643;SDS011;1838;50.742;7.158;2023-02-15T01:44:40;63.30;;;26.87;;
3643;SDS011;1838;50.742;7.158;2023-02-15T01:47:13;64.75;;;24.30;;
3643;SDS011;1838;50.742;7.158;2023-02-15T01:49:43;67.60;;;24.13;;
3643;SDS011;1838;50.742;7.158;2023-02-15T01:52:11;56.05;;;25.05;;
3643;SDS011;1838;50.742;7.158;2023-02-15T01:54:39;65.95;;;25.55;;
3643;SDS011;1838;50.742;7.158;2023-02-15T01:57:08;64.60;;;25.30;;
3643;SDS011;1838;50.742;7.158;2023-02-15T01:59:36;65.40;;;26.60;;
3643;SDS011;1838;50.742;7.158;2023-02-15T02:02:04;65.53;;;25.93;;
3643;SDS011;1838;50.742;7.158;2023-02-15T02:04:41;74.57;;;28.90;;
3643;SDS011;1838;50.742;7.158;2023-02-15T02:07:20;65.82;;;28.08;;
3643;SDS011;1838;50.742;7.158;2023-02-15T02:09:49;65.43;;;27.27;;
3643;SDS011;1838;50.742;7.158;2023-02-15T02:12:16;74.13;;;28.60;;
3643;SDS011;1838;50.742;7.158;2023-02-15T02:14:42;71.05;;;27.48;;
3643;SDS011;1838;50.742;7.158;2023-02-15T02:17:15;86.63;;;30.40;;
3643;SDS011;1838;50.742;7.158;2023-02-15T02:25:33;78.88;;;27.85;;
3643;SDS011;1838;50.742;7.158;2023-02-15T02:37:02;76.87;;;28.63;;
3643;SDS011;1838;50.742;7.158;2023-02-15T02:40:01;94.18;;;31.48;;
3643;SDS011;1838;50.742;7.158;2023-02-15T02:42:54;73.82;;;27.23;;
3643;SDS011;1838;50.742;7.158;2023-02-15T02:45:25;83.00;;;28.98;;
3643;SDS011;1838;50.742;7.158;2023-02-15T02:47:59;87.40;;;31.02;;
3643;SDS011;1838;50.742;7.158;2023-02-15T02:50:34;80.00;;;29.45;;
3643;SDS011;1838;50.742;7.158;2023-02-15T02:53:00;72.87;;;29.30;;
3643;SDS011;1838;50.742;7.158;2023-02-15T02:55:30;62.07;;;25.40;;
3643;SDS011;1838;50.742;7.158;2023-02-15T03:00:31;63.40;;;26.30;;
3643;SDS011;1838;50.742;7.158;2023-02-15T03:03:03;62.60;;;24.87;;
3643;SDS011;1838;50.742;7.158;2023-02-15T03:05:37;76.73;;;27.37;;
3643;SDS011;1838;50.742;7.158;2023-02-15T03:08:05;66.05;;;27.00;;
3643;SDS011;1838;50.742;7.158;2023-02-15T03:10:34;151.88;;;40.65;;
3643;SDS011;1838;50.742;7.158;2023-02-15T03:13:01;98.72;;;29.45;;
3643;SDS011;1838;50.742;7.158;2023-02-15T03:15:33;77.63;;;29.00;;
3643;SDS011;1838;50.742;7.158;2023-02-15T03:18:22;82.00;;;30.30;;
3643;SDS011;1838;50.742;7.158;2023-02-15T03:20:51;72.22;;;28.67;;
3643;SDS011;1838;50.742;7.158;2023-02-15T03:23:20;58.97;;;24.92;;
3643;SDS011;1838;50.742;7.158;2023-02-15T03:25:50;79.37;;;28.17;;
3643;SDS011;1838;50.742;7.158;2023-02-15T03:28:45;59.65;;;25.08;;
3643;SDS011;1838;50.742;7.158;2023-02-15T03:31:10;70.82;;;24.90;;
3643;SDS011;1838;50.742;7.158;2023-02-15T03:33:40;72.93;;;26.55;;
3643;SDS011;1838;50.742;7.158;2023-02-15T03:36:15;72.60;;;27.17;;
3643;SDS011;1838;50.742;7.158;2023-02-15T03:41:53;69.43;;;25.73;;
3643;SDS011;1838;50.742;7.158;2023-02-15T03:44:29;67.60;;;27.25;;
3643;SDS011;1838;50.742;7.158;2023-02-15T03:49:53;68.50;;;25.70;;
3643;SDS011;1838;50.742;7.158;2023-02-15T03:52:27;59.60;;;25.17;;
3643;SDS011;1838;50.742;7.158;2023-02-15T03:54:54;62.75;;;25.42;;
3643;SDS011;1838;50.742;7.158;2023-02-15T03:57:25;57.83;;;24.50;;
3643;SDS011;1838;50.742;7.158;2023-02-15T04:00:19;62.17;;;23.60;;
3643;SDS011;1838;50.742;7.158;2023-02-15T04:03:09;62.72;;;25.40;;
3643;SDS011;1838;50.742;7.158;2023-02-15T04:05:36;64.78;;;24.48;;
3643;SDS011;1838;50.742;7.158;2023-02-15T04:08:04;72.97;;;24.52;;
3643;SDS011;1838;50.742;7.158;2023-02-15T04:10:30;75.63;;;27.02;;
3643;SDS011;1838;50.742;7.158;2023-02-15T04:13:14;62.85;;;24.92;;
3643;SDS011;1838;50.742;7.158;2023-02-15T04:15:40;60.50;;;24.10;;
3643;SDS011;1838;50.742;7.158;2023-02-15T04:18:25;68.65;;;27.80;;
3643;SDS011;1838;50.742;7.158;2023-02-15T04:21:10;62.30;;;23.75;;
3643;SDS011;1838;50.742;7.158;2023-02-15T04:23:53;53.83;;;21.30;;
3643;SDS011;1838;50.742;7.158;2023-02-15T04:26:38;57.35;;;22.55;;
3643;SDS011;1838;50.742;7.158;2023-02-15T04:29:06;63.70;;;25.02;;
3643;SDS011;1838;50.742;7.158;2023-02-15T04:31:32;59.93;;;23.37;;
3643;SDS011;1838;50.742;7.158;2023-02-15T04:33:57;74.77;;;27.40;;
3643;SDS011;1838;50.742;7.158;2023-02-15T04:36:23;65.20;;;23.87;;
3643;SDS011;1838;50.742;7.158;2023-02-15T04:38:49;63.05;;;24.38;;
3643;SDS011;1838;50.742;7.158;2023-02-15T04:41:15;64.97;;;24.10;;
3643;SDS011;1838;50.742;7.158;2023-02-15T04:43:40;62.43;;;24.70;;
3643;SDS011;1838;50.742;7.158;2023-02-15T04:46:06;63.83;;;26.50;;
3643;SDS011;1838;50.742;7.158;2023-02-15T04:48:31;56.57;;;24.47;;
3643;SDS011;1838;50.742;7.158;2023-02-15T04:50:57;63.80;;;23.10;;
3643;SDS011;1838;50.742;7.158;2023-02-15T04:53:24;57.77;;;22.60;;
3643;SDS011;1838;50.742;7.158;2023-02-15T04:55:52;57.92;;;22.77;;
3643;SDS011;1838;50.742;7.158;2023-02-15T04:58:20;67.88;;;26.15;;
3643;SDS011;1838;50.742;7.158;2023-02-15T05:00:46;57.25;;;23.08;;
3643;SDS011;1838;50.742;7.158;2023-02-15T05:03:13;58.07;;;22.30;;
3643;SDS011;1838;50.742;7.158;2023-02-15T05:05:39;61.58;;;23.17;;
3643;SDS011;1838;50.742;7.158;2023-02-15T05:08:05;57.43;;;23.80;;
3643;SDS011;1838;50.742;7.158;2023-02-15T05:10:31;64.07;;;22.50;;
3643;SDS011;1838;50.742;7.158;2023-02-15T05:12:58;63.90;;;22.30;;
3643;SDS011;1838;50.742;7.158;2023-02-15T05:15:25;55.28;;;22.63;;
3643;SDS011;1838;50.742;7.158;2023-02-15T05:17:52;67.40;;;25.77;;
3643;SDS011;1838;50.742;7.158;2023-02-15T05:20:17;55.53;;;23.25;;
3643;SDS011;1838;50.742;7.158;2023-02-15T05:22:43;58.28;;;23.00;;
3643;SDS011;1838;50.742;7.158;2023-02-15T05:25:09;57.23;;;21.27;;
3643;SDS011;1838;50.742;7.158;2023-02-15T05:27:53;60.78;;;22.05;;
3643;SDS011;1838;50.742;7.158;2023-02-15T05:30:38;53.28;;;21.75;;
3643;SDS011;1838;50.742;7.158;2023-02-15T05:33:09;62.53;;;22.48;;
3643;SDS011;1838;50.742;7.158;2023-02-15T05:35:35;63.72;;;23.50;;
3643;SDS011;1838;50.742;7.158;2023-02-15T05:38:01;65.93;;;24.23;;
3643;SDS011;1838;50.742;7.158;2023-02-15T05:40:26;56.90;;;24.20;;
3643;SDS011;1838;50.742;7.158;2023-02-15T05:42:58;59.53;;;22.50;;
3643;SDS011;1838;50.742;7.158;2023-02-15T05:45:23;53.17;;;21.20;;
3643;SDS011;1838;50.742;7.158;2023-02-15T05:47:50;58.05;;;23.80;;
3643;SDS011;1838;50.742;7.158;2023-02-15T05:50:16;62.20;;;23.40;;
3643;SDS011;1838;50.742;7.158;2023-02-15T05:52:41;53.70;;;22.20;;
3643;SDS011;1838;50.742;7.158;2023-02-15T05:55:08;53.97;;;21.43;;
3643;SDS011;1838;50.742;7.158;2023-02-15T05:57:34;58.25;;;22.50;;
3643;SDS011;1838;50.742;7.158;2023-02-15T06:00:03;56.17;;;23.85;;
3643;SDS011;1838;50.742;7.158;2023-02-15T06:02:34;56.72;;;20.92;;
3643;SDS011;1838;50.742;7.158;2023-02-15T06:05:00;50.80;;;21.55;;
3643;SDS011;1838;50.742;7.158;2023-02-15T06:07:27;52.88;;;21.33;;
3643;SDS011;1838;50.742;7.158;2023-02-15T06:09:53;53.13;;;21.00;;
3643;SDS011;1838;50.742;7.158;2023-02-15T06:12:18;61.10;;;23.73;;
3643;SDS011;1838;50.742;7.158;2023-02-15T06:14:46;59.20;;;22.10;;
3643;SDS011;1838;50.742;7.158;2023-02-15T06:17:12;54.53;;;22.27;;
3643;SDS011;1838;50.742;7.158;2023-02-15T06:19:38;51.97;;;20.90;;
3643;SDS011;1838;50.742;7.158;2023-02-15T06:22:03;48.83;;;20.87;;
3643;SDS011;1838;50.742;7.158;2023-02-15T06:24:32;53.53;;;21.00;;
3643;SDS011;1838;50.742;7.158;2023-02-15T06:26:57;55.00;;;22.07;;
3643;SDS011;1838;50.742;7.158;2023-02-15T06:29:23;47.83;;;21.93;;
3643;SDS011;1838;50.742;7.158;2023-02-15T06:31:49;50.23;;;19.60;;
3643;SDS011;1838;50.742;7.158;2023-02-15T06:34:14;62.00;;;22.23;;
3643;SDS011;1838;50.742;7.158;2023-02-15T06:36:41;46.27;;;19.43;;
3643;SDS011;1838;50.742;7.158;2023-02-15T06:39:07;49.22;;;18.27;;
3643;SDS011;1838;50.742;7.158;2023-02-15T06:41:32;50.67;;;21.50;;
3643;SDS011;1838;50.742;7.158;2023-02-15T06:43:58;50.40;;;18.60;;
3643;SDS011;1838;50.742;7.158;2023-02-15T06:46:25;42.08;;;18.58;;
3643;SDS011;1838;50.742;7.158;2023-02-15T06:48:50;48.50;;;21.53;;
3643;SDS011;1838;50.742;7.158;2023-02-15T06:51:16;49.97;;;20.03;;
3643;SDS011;1838;50.742;7.158;2023-02-15T06:53:43;56.37;;;21.43;;
3643;SDS011;1838;50.742;7.158;2023-02-15T06:56:09;54.13;;;21.90;;
3643;SDS011;1838;50.742;7.158;2023-02-15T06:58:35;48.20;;;19.30;;
3643;SDS011;1838;50.742;7.158;2023-02-15T07:01:07;45.30;;;21.10;;
3643;SDS011;1838;50.742;7.158;2023-02-15T07:03:34;54.22;;;19.92;;
3643;SDS011;1838;50.742;7.158;2023-02-15T07:06:02;48.05;;;20.42;;
3643;SDS011;1838;50.742;7.158;2023-02-15T07:08:33;52.63;;;21.35;;
3643;SDS011;1838;50.742;7.158;2023-02-15T07:10:59;53.70;;;20.42;;
3643;SDS011;1838;50.742;7.158;2023-02-15T07:13:44;52.35;;;20.45;;
3643;SDS011;1838;50.742;7.158;2023-02-15T07:16:11;52.20;;;20.05;;
3643;SDS011;1838;50.742;7.158;2023-02-15T07:18:37;51.37;;;20.63;;
3643;SDS011;1838;50.742;7.158;2023-02-15T07:21:03;42.50;;;18.85;;
3643;SDS011;1838;50.742;7.158;2023-02-15T07:23:33;52.07;;;20.80;;
3643;SDS011;1838;50.742;7.158;2023-02-15T07:26:02;49.10;;;20.48;;
3643;SDS011;1838;50.742;7.158;2023-02-15T07:28:32;52.97;;;21.13;;
3643;SDS011;1838;50.742;7.158;2023-02-15T07:30:58;45.63;;;20.33;;
3643;SDS011;1838;50.742;7.158;2023-02-15T07:33:26;48.10;;;19.80;;
3643;SDS011;1838;50.742;7.158;2023-02-15T07:35:58;45.97;;;20.33;;
3643;SDS011;1838;50.742;7.158;2023-02-15T07:38:27;53.10;;;20.47;;
3643;SDS011;1838;50.742;7.158;2023-02-15T07:40:58;46.53;;;19.20;;
3643;SDS011;1838;50.742;7.158;2023-02-15T07:43:25;40.67;;;17.75;;
3643;SDS011;1838;50.742;7.158;2023-02-15T07:45:51;49.40;;;18.95;;
3643;SDS011;1838;50.742;7.158;2023-02-15T07:48:17;43.50;;;18.53;;
3643;SDS011;1838;50.742;7.158;2023-02-15T07:50:43;40.47;;;18.43;;
3643;SDS011;1838;50.742;7.158;2023-02-15T07:53:09;51.77;;;18.70;;
3643;SDS011;1838;50.742;7.158;2023-02-15T07:55:35;50.10;;;21.20;;
3643;SDS011;1838;50.742;7.158;2023-02-15T07:58:00;40.33;;;18.43;;
3643;SDS011;1838;50.742;7.158;2023-02-15T08:00:28;45.50;;;18.73;;
3643;SDS011;1838;50.742;7.158;2023-02-15T08:03:14;48.77;;;18.90;;
3643;SDS011;1838;50.742;7.158;2023-02-15T08:05:40;49.13;;;18.50;;
3643;SDS011;1838;50.742;7.158;2023-02-15T08:08:08;48.57;;;20.50;;
3643;SDS011;1838;50.742;7.158;2023-02-15T08:10:57;42.10;;;20.23;;
3643;SDS011;1838;50.742;7.158;2023-02-15T08:16:30;43.73;;;18.60;;
3643;SDS011;1838;50.742;7.158;2023-02-15T08:18:58;46.10;;;19.13;;
3643;SDS011;1838;50.742;7.158;2023-02-15T08:21:29;49.33;;;18.53;;
3643;SDS011;1838;50.742;7.158;2023-02-15T08:23:56;48.93;;;17.83;;
3643;SDS011;1838;50.742;7.158;2023-02-15T08:26:28;46.20;;;18.83;;
3643;SDS011;1838;50.742;7.158;2023-02-15T08:28:55;41.60;;;18.90;;
3643;SDS011;1838;50.742;7.158;2023-02-15T08:31:21;41.17;;;17.40;;
3643;SDS011;1838;50.742;7.158;2023-02-15T08:33:47;41.73;;;18.00;;
3643;SDS011;1838;50.742;7.158;2023-02-15T08:36:16;42.50;;;18.83;;
3643;SDS011;1838;50.742;7.158;2023-02-15T08:38:46;42.77;;;17.37;;
3643;SDS011;1838;50.742;7.158;2023-02-15T08:41:13;45.17;;;18.60;;
3643;SDS011;1838;50.742;7.158;2023-02-15T08:43:39;36.77;;;15.63;;
3643;SDS011;1838;50.742;7.158;2023-02-15T08:46:06;46.43;;;18.53;;
3643;SDS011;1838;50.742;7.158;2023-02-15T08:48:32;54.53;;;18.27;;
3643;SDS011;1838;50.742;7.158;2023-02-15T08:50:58;44.90;;;18.97;;
3643;SDS011;1838;50.742;7.158;2023-02-15T08:53:24;36.63;;;16.73;;
3643;SDS011;1838;50.742;7.158;2023-02-15T08:55:56;37.97;;;17.63;;
3643;SDS011;1838;50.742;7.158;2023-02-15T08:58:22;40.30;;;17.43;;
3643;SDS011;1838;50.742;7.158;2023-02-15T09:00:48;33.40;;;17.57;;
3643;SDS011;1838;50.742;7.158;2023-02-15T09:03:13;40.00;;;17.90;;
3643;SDS011;1838;50.742;7.158;2023-02-15T09:05:39;35.73;;;16.77;;
3643;SDS011;1838;50.742;7.158;2023-02-15T09:08:07;38.17;;;17.60;;
3643;SDS011;1838;50.742;7.158;2023-02-15T09:10:33;38.30;;;17.20;;
3643;SDS011;1838;50.742;7.158;2023-02-15T09:12:58;34.40;;;16.83;;
3643;SDS011;1838;50.742;7.158;2023-02-15T09:15:24;40.07;;;17.17;;
3643;SDS011;1838;50.742;7.158;2023-02-15T09:17:49;34.87;;;17.40;;
3643;SDS011;1838;50.742;7.158;2023-02-15T09:20:15;33.47;;;15.40;;
3643;SDS011;1838;50.742;7.158;2023-02-15T09:22:40;34.67;;;16.33;;
3643;SDS011;1838;50.742;7.158;2023-02-15T09:25:07;39.67;;;17.50;;
3643;SDS011;1838;50.742;7.158;2023-02-15T09:27:32;38.20;;;17.23;;
3643;SDS011;1838;50.742;7.158;2023-02-15T09:29:58;37.63;;;16.93;;
3643;SDS011;1838;50.742;7.158;2023-02-15T09:32:26;37.73;;;15.63;;
3643;SDS011;1838;50.742;7.158;2023-02-15T09:34:52;39.97;;;15.50;;
3643;SDS011;1838;50.742;7.158;2023-02-15T09:37:25;32.30;;;16.07;;
3643;SDS011;1838;50.742;7.158;2023-02-15T09:39:50;31.63;;;15.67;;
3643;SDS011;1838;50.742;7.158;2023-02-15T09:45:04;34.20;;;16.33;;
3643;SDS011;1838;50.742;7.158;2023-02-15T09:50:32;31.97;;;14.67;;
3643;SDS011;1838;50.742;7.158;2023-02-15T10:09:32;35.37;;;15.07;;
3643;SDS011;1838;50.742;7.158;2023-02-15T10:12:29;29.30;;;14.60;;
3643;SDS011;1838;50.742;7.158;2023-02-15T10:26:44;35.20;;;15.47;;
3643;SDS011;1838;50.742;7.158;2023-02-15T10:31:54;28.27;;;15.20;;
3643;SDS011;1838;50.742;7.158;2023-02-15T10:37:44;35.43;;;16.20;;
3643;SDS011;1838;50.742;7.158;2023-02-15T10:40:32;30.37;;;14.20;;
3643;SDS011;1838;50.742;7.158;2023-02-15T10:46:23;31.60;;;15.00;;
3643;SDS011;1838;50.742;7.158;2023-02-15T11:00:14;26.97;;;15.17;;
3643;SDS011;1838;50.742;7.158;2023-02-15T11:03:15;28.53;;;14.03;;
3643;SDS011;1838;50.742;7.158;2023-02-15T11:06:00;21.47;;;13.20;;
3643;SDS011;1838;50.742;7.158;2023-02-15T11:08:31;26.97;;;14.70;;
3643;SDS011;1838;50.742;7.158;2023-02-15T11:11:01;29.70;;;14.60;;
3643;SDS011;1838;50.742;7.158;2023-02-15T11:13:34;24.47;;;13.60;;
3643;SDS011;1838;50.742;7.158;2023-02-15T11:18:42;29.80;;;14.57;;
3643;SDS011;1838;50.742;7.158;2023-02-15T11:21:22;33.33;;;15.50;;
3643;SDS011;1838;50.742;7.158;2023-02-15T11:24:09;28.50;;;15.47;;
3643;SDS011;1838;50.742;7.158;2023-02-15T11:26:43;25.07;;;13.43;;
3643;SDS011;1838;50.742;7.158;2023-02-15T11:29:23;30.37;;;15.63;;
3643;SDS011;1838;50.742;7.158;2023-02-15T11:32:11;28.50;;;14.13;;
3643;SDS011;1838;50.742;7.158;2023-02-15T11:34:49;31.60;;;14.33;;
3643;SDS011;1838;50.742;7.158;2023-02-15T11:37:28;29.90;;;15.87;;
3643;SDS011;1838;50.742;7.158;2023-02-15T11:40:01;29.80;;;15.10;;
3643;SDS011;1838;50.742;7.158;2023-02-15T11:42:28;28.43;;;14.53;;
3643;SDS011;1838;50.742;7.158;2023-02-15T11:45:02;30.07;;;15.57;;
3643;SDS011;1838;50.742;7.158;2023-02-15T11:47:39;24.57;;;14.90;;
3643;SDS011;1838;50.742;7.158;2023-02-15T11:50:05;25.63;;;14.17;;
3643;SDS011;1838;50.742;7.158;2023-02-15T11:52:36;21.17;;;13.53;;
3643;SDS011;1838;50.742;7.158;2023-02-15T11:55:01;22.73;;;14.43;;
3643;SDS011;1838;50.742;7.158;2023-02-15T11:57:37;32.67;;;16.63;;
3643;SDS011;1838;50.742;7.158;2023-02-15T12:00:10;26.10;;;14.20;;
3643;SDS011;1838;50.742;7.158;2023-02-15T12:02:56;28.83;;;15.33;;
3643;SDS011;1838;50.742;7.158;2023-02-15T12:05:23;23.50;;;14.43;;
3643;SDS011;1838;50.742;7.158;2023-02-15T12:08:03;24.77;;;14.70;;
3643;SDS011;1838;50.742;7.158;2023-02-15T12:11:00;28.47;;;14.70;;
3643;SDS011;1838;50.742;7.158;2023-02-15T12:13:32;24.97;;;14.87;;
3643;SDS011;1838;50.742;7.158;2023-02-15T12:15:58;22.33;;;14.20;;
3643;SDS011;1838;50.742;7.158;2023-02-15T12:18:42;24.20;;;13.90;;
3643;SDS011;1838;50.742;7.158;2023-02-15T12:21:11;25.23;;;13.90;;
3643;SDS011;1838;50.742;7.158;2023-02-15T12:23:50;23.20;;;13.47;;
3643;SDS011;1838;50.742;7.158;2023-02-15T12:26:27;25.70;;;14.17;;
3643;SDS011;1838;50.742;7.158;2023-02-15T12:28:55;20.53;;;13.00;;
3643;SDS011;1838;50.742;7.158;2023-02-15T12:31:27;22.73;;;14.37;;
3643;SDS011;1838;50.742;7.158;2023-02-15T12:33:57;25.50;;;13.53;;
3643;SDS011;1838;50.742;7.158;2023-02-15T12:36:29;25.83;;;15.03;;
3643;SDS011;1838;50.742;7.158;2023-02-15T12:41:38;29.40;;;13.43;;
3643;SDS011;1838;50.742;7.158;2023-02-15T12:44:21;26.23;;;14.70;;
3643;SDS011;1838;50.742;7.158;2023-02-15T12:49:23;21.50;;;12.70;;
3643;SDS011;1838;50.742;7.158;2023-02-15T12:51:50;23.07;;;13.70;;
3643;SDS011;1838;50.742;7.158;2023-02-15T12:59:56;24.70;;;13.50;;
3643;SDS011;1838;50.742;7.158;2023-02-15T13:02:41;23.30;;;13.20;;
3643;SDS011;1838;50.742;7.158;2023-02-15T13:07:48;24.60;;;14.17;;
3643;SDS011;1838;50.742;7.158;2023-02-15T13:10:26;19.37;;;12.60;;
3643;SDS011;1838;50.742;7.158;2023-02-15T13:12:58;21.00;;;12.70;;
3643;SDS011;1838;50.742;7.158;2023-02-15T13:15:25;21.27;;;13.90;;
3643;SDS011;1838;50.742;7.158;2023-02-15T13:17:55;19.70;;;12.37;;
3643;SDS011;1838;50.742;7.158;2023-02-15T13:20:22;22.47;;;12.33;;
3643;SDS011;1838;50.742;7.158;2023-02-15T13:22:52;19.70;;;12.07;;
3643;SDS011;1838;50.742;7.158;2023-02-15T13:25:22;19.03;;;12.13;;
3643;SDS011;1838;50.742;7.158;2023-02-15T13:28:03;26.60;;;13.57;;
3643;SDS011;1838;50.742;7.158;2023-02-15T13:30:31;21.67;;;12.83;;
3643;SDS011;1838;50.742;7.158;2023-02-15T13:33:17;20.50;;;12.60;;
3643;SDS011;1838;50.742;7.158;2023-02-15T13:41:25;19.43;;;12.27;;
3643;SDS011;1838;50.742;7.158;2023-02-15T13:44:04;22.20;;;13.07;;
3643;SDS011;1838;50.742;7.158;2023-02-15T13:46:52;22.10;;;13.20;;
3643;SDS011;1838;50.742;7.158;2023-02-15T13:49:58;24.33;;;13.87;;
3643;SDS011;1838;50.742;7.158;2023-02-15T13:52:29;20.27;;;12.60;;
3643;SDS011;1838;50.742;7.158;2023-02-15T13:55:23;23.30;;;12.53;;
3643;SDS011;1838;50.742;7.158;2023-02-15T14:03:46;25.93;;;14.13;;
3643;SDS011;1838;50.742;7.158;2023-02-15T14:08:49;22.77;;;13.47;;
3643;SDS011;1838;50.742;7.158;2023-02-15T14:11:25;23.00;;;13.53;;
3643;SDS011;1838;50.742;7.158;2023-02-15T14:16:48;27.60;;;15.57;;
3643;SDS011;1838;50.742;7.158;2023-02-15T14:22:28;25.73;;;13.43;;
3643;SDS011;1838;50.742;7.158;2023-02-15T14:25:03;23.00;;;13.63;;
3643;SDS011;1838;50.742;7.158;2023-02-15T14:30:40;21.30;;;12.93;;
3643;SDS011;1838;50.742;7.158;2023-02-15T14:35:57;21.53;;;12.47;;
3643;SDS011;1838;50.742;7.158;2023-02-15T14:38:34;22.40;;;12.23;;
3643;SDS011;1838;50.742;7.158;2023-02-15T14:41:19;21.27;;;12.20;;
3643;SDS011;1838;50.742;7.158;2023-02-15T14:54:09;20.77;;;13.57;;
3643;SDS011;1838;50.742;7.158;2023-02-15T14:56:36;20.97;;;12.40;;
3643;SDS011;1838;50.742;7.158;2023-02-15T14:59:13;23.10;;;13.20;;
3643;SDS011;1838;50.742;7.158;2023-02-15T15:01:50;21.00;;;12.67;;
3643;SDS011;1838;50.742;7.158;2023-02-15T15:04:24;22.83;;;13.67;;
3643;SDS011;1838;50.742;7.158;2023-02-15T15:07:04;21.67;;;13.13;;
3643;SDS011;1838;50.742;7.158;2023-02-15T15:09:40;20.60;;;12.50;;
3643;SDS011;1838;50.742;7.158;2023-02-15T15:12:14;19.43;;;11.40;;
3643;SDS011;1838;50.742;7.158;2023-02-15T15:14:43;37.23;;;20.87;;
3643;SDS011;1838;50.742;7.158;2023-02-15T15:17:11;29.50;;;12.80;;
3643;SDS011;1838;50.742;7.158;2023-02-15T15:22:19;23.80;;;12.90;;
3643;SDS011;1838;50.742;7.158;2023-02-15T15:24:59;21.37;;;12.73;;
3643;SDS011;1838;50.742;7.158;2023-02-15T15:27:45;24.23;;;13.57;;
3643;SDS011;1838;50.742;7.158;2023-02-15T15:32:38;23.20;;;13.33;;
3643;SDS011;1838;50.742;7.158;2023-02-15T15:35:16;21.10;;;13.07;;
3643;SDS011;1838;50.742;7.158;2023-02-15T15:49:19;24.13;;;12.50;;
3643;SDS011;1838;50.742;7.158;2023-02-15T15:51:46;20.20;;;12.87;;
3643;SDS011;1838;50.742;7.158;2023-02-15T15:54:17;21.43;;;12.60;;
3643;SDS011;1838;50.742;7.158;2023-02-15T15:56:47;16.47;;;10.80;;
3643;SDS011;1838;50.742;7.158;2023-02-15T15:59:25;19.63;;;12.27;;
3643;SDS011;1838;50.742;7.158;2023-02-15T16:01:54;17.97;;;10.77;;
3643;SDS011;1838;50.742;7.158;2023-02-15T16:04:27;16.83;;;10.50;;
3643;SDS011;1838;50.742;7.158;2023-02-15T16:06:55;13.07;;;9.07;;
3643;SDS011;1838;50.742;7.158;2023-02-15T16:09:23;14.80;;;9.03;;
3643;SDS011;1838;50.742;7.158;2023-02-15T16:11:55;18.67;;;9.50;;
3643;SDS011;1838;50.742;7.158;2023-02-15T16:14:38;14.33;;;9.83;;
3643;SDS011;1838;50.742;7.158;2023-02-15T16:17:05;16.00;;;8.83;;
3643;SDS011;1838;50.742;7.158;2023-02-15T16:19:39;17.77;;;10.77;;
3643;SDS011;1838;50.742;7.158;2023-02-15T16:22:14;20.30;;;9.40;;
3643;SDS011;1838;50.742;7.158;2023-02-15T16:27:34;19.23;;;8.50;;
3643;SDS011;1838;50.742;7.158;2023-02-15T16:33:13;12.00;;;8.80;;
3643;SDS011;1838;50.742;7.158;2023-02-15T16:35:57;14.80;;;9.40;;
3643;SDS011;1838;50.742;7.158;2023-02-15T16:41:17;14.60;;;9.23;;
3643;SDS011;1838;50.742;7.158;2023-02-15T16:43:48;20.07;;;11.30;;
3643;SDS011;1838;50.742;7.158;2023-02-15T16:46:16;19.10;;;10.47;;
3643;SDS011;1838;50.742;7.158;2023-02-15T16:48:49;18.63;;;11.03;;
3643;SDS011;1838;50.742;7.158;2023-02-15T16:51:21;18.57;;;10.53;;
3643;SDS011;1838;50.742;7.158;2023-02-15T16:53:49;23.57;;;12.00;;
3643;SDS011;1838;50.742;7.158;2023-02-15T16:56:21;25.57;;;12.50;;
3643;SDS011;1838;50.742;7.158;2023-02-15T16:58:49;18.37;;;11.63;;
3643;SDS011;1838;50.742;7.158;2023-02-15T17:01:16;28.77;;;13.53;;
3643;SDS011;1838;50.742;7.158;2023-02-15T17:03:48;22.00;;;11.20;;
3643;SDS011;1838;50.742;7.158;2023-02-15T17:06:22;20.23;;;11.60;;
3643;SDS011;1838;50.742;7.158;2023-02-15T17:08:51;23.50;;;11.80;;
3643;SDS011;1838;50.742;7.158;2023-02-15T17:11:21;18.33;;;10.90;;
3643;SDS011;1838;50.742;7.158;2023-02-15T17:16:32;21.30;;;11.50;;
3643;SDS011;1838;50.742;7.158;2023-02-15T17:19:14;20.27;;;11.00;;
3643;SDS011;1838;50.742;7.158;2023-02-15T17:21:45;24.43;;;12.17;;
3643;SDS011;1838;50.742;7.158;2023-02-15T17:24:35;31.30;;;13.70;;
3643;SDS011;1838;50.742;7.158;2023-02-15T17:27:05;31.73;;;14.33;;
3643;SDS011;1838;50.742;7.158;2023-02-15T17:29:37;29.27;;;13.87;;
3643;SDS011;1838;50.742;7.158;2023-02-15T17:32:20;28.40;;;12.87;;
3643;SDS011;1838;50.742;7.158;2023-02-15T17:34:48;26.73;;;13.13;;
3643;SDS011;1838;50.742;7.158;2023-02-15T17:37:27;23.80;;;14.30;;
3643;SDS011;1838;50.742;7.158;2023-02-15T17:39:56;26.07;;;13.00;;
3643;SDS011;1838;50.742;7.158;2023-02-15T17:42:23;24.10;;;14.70;;
3643;SDS011;1838;50.742;7.158;2023-02-15T17:44:48;22.90;;;13.00;;
3643;SDS011;1838;50.742;7.158;2023-02-15T17:47:15;25.97;;;14.17;;
3643;SDS011;1838;50.742;7.158;2023-02-15T17:49:45;28.93;;;12.90;;
3643;SDS011;1838;50.742;7.158;2023-02-15T17:52:13;24.80;;;14.03;;